Time;durP1;ratioP1;P1;durP2;ratioP2;P2;SDS_P1;SDS_P2;PMS_P1;PMS_P2;Temp;Humidity;BMP_temperature;BMP_pressure;BME280_temperature;BME280_humidity;BME280_pressure;Samples;Min_cycle;Max_cycle;Signal;HPM_P1;HPM_P2
2022/10/27 00:00:55;;;;;;;13.90;6.93;;;;;;;5.31;58.40;100014.94;4888610;29;20065;-95
2022/10/27 00:03:21;;;;;;;11.40;6.28;;;;;;;5.03;58.03;99977.34;4913416;29;20040;-92
2022/10/27 00:05:48;;;;;;;16.43;6.53;;;;;;;5.27;58.18;100005.72;4918628;29;20550;-92
2022/10/27 00:08:16;;;;;;;12.35;6.82;;;;;;;5.32;57.98;100015.75;4910219;29;20055;-94
2022/10/27 00:10:44;;;;;;;13.55;6.32;;;;;;;5.37;57.76;100021.22;4928653;29;20040;-95
2022/10/27 00:13:17;;;;;;;17.88;7.82;;;;;;;5.46;57.43;100010.69;4910552;29;20052;-92
2022/10/27 00:16:17;;;;;;;16.13;7.15;;;;;;;4.87;57.66;99943.91;4919215;29;20044;-94
2022/10/27 00:19:00;;;;;;;13.13;6.90;;;;;;;5.36;57.63;100006.03;4910620;29;20538;-96
2022/10/27 00:21:28;;;;;;;19.40;7.20;;;;;;;5.03;57.96;99983.56;4895651;29;20060;-93
2022/10/27 00:23:54;;;;;;;12.25;6.55;;;;;;;5.19;57.92;100000.75;4891161;29;20049;-91
2022/10/27 00:26:21;;;;;;;11.50;6.45;;;;;;;4.92;57.82;99952.88;4884093;29;20052;-93
2022/10/27 00:28:48;;;;;;;14.85;7.20;;;;;;;5.18;58.08;99983.69;4905548;29;20131;-93
2022/10/27 00:31:17;;;;;;;12.80;6.93;;;;;;;5.00;58.04;99948.88;4876099;29;20057;-92
2022/10/27 00:33:45;;;;;;;13.43;7.10;;;;;;;5.29;58.04;100000.81;4887470;29;20036;-92
2022/10/27 00:36:14;;;;;;;13.88;6.97;;;;;;;5.23;58.35;99977.50;4908229;29;20053;-89
2022/10/27 00:38:41;;;;;;;14.85;7.55;;;;;;;5.31;58.52;99995.97;4905199;29;20506;-90
2022/10/27 00:41:26;;;;;;;15.10;7.50;;;;;;;4.98;58.10;99948.31;4892545;29;20092;-92
2022/10/27 00:43:53;;;;;;;13.75;7.80;;;;;;;5.22;57.65;99983.16;4887017;29;20472;-92
2022/10/27 00:46:36;;;;;;;12.93;7.10;;;;;;;5.37;57.69;100004.97;4886566;29;20036;-94
2022/10/27 00:49:07;;;;;;;14.70;6.72;;;;;;;5.38;58.42;100004.69;4890786;29;20055;-91
2022/10/27 00:51:38;;;;;;;13.15;7.75;;;;;;;5.40;57.86;100001.72;4906868;29;20044;-92
2022/10/27 00:54:05;;;;;;;9.88;6.47;;;;;;;5.22;57.97;99975.84;4891704;29;20075;-92
2022/10/27 00:56:32;;;;;;;14.05;7.18;;;;;;;5.06;57.74;99942.41;4891425;29;20708;-92
2022/10/27 00:58:59;;;;;;;14.02;7.45;;;;;;;5.35;57.78;99991.66;4890361;29;20048;-93
2022/10/27 01:01:25;;;;;;;;;;;;;;;5.47;57.87;100009.63;4892659;29;20056;-92
2022/10/27 01:03:52;;;;;;;11.43;6.95;;;;;;;5.46;57.92;100016.13;4873940;29;20013;-92
2022/10/27 01:06:18;;;;;;;15.80;7.05;;;;;;;5.52;58.32;100006.94;4876423;29;20045;-91
2022/10/27 01:08:44;;;;;;;15.60;7.60;;;;;;;5.10;58.04;99945.41;4875169;29;20048;-93
2022/10/27 01:11:10;;;;;;;16.38;7.72;;;;;;;5.54;57.83;100007.50;4858209;29;20052;-95
2022/10/27 01:13:37;;;;;;;13.18;7.88;;;;;;;5.33;57.86;99974.84;4872832;29;20048;-93
2022/10/27 01:16:31;;;;;;;20.85;8.30;;;;;;;5.53;58.27;100000.44;4874107;29;20427;-96
2022/10/27 01:19:35;;;;;;;18.20;8.20;;;;;;;5.54;57.73;100002.09;4881129;29;20044;-91
2022/10/27 01:22:20;;;;;;;18.48;8.07;;;;;;;5.37;57.83;99981.38;4889185;29;20044;-92
2022/10/27 01:25:02;;;;;;;13.57;7.60;;;;;;;5.53;58.19;100001.28;4873989;29;20067;-94
2022/10/27 01:27:41;;;;;;;16.95;8.10;;;;;;;5.49;57.87;99999.31;4894833;29;20040;-93
2022/10/27 01:30:11;;;;;;;16.42;8.13;;;;;;;5.38;58.20;99984.91;4906031;29;20037;-92
2022/10/27 01:32:50;;;;;;;13.93;7.60;;;;;;;5.07;58.46;99944.06;4923611;29;20040;-95
2022/10/27 01:35:25;;;;;;;17.58;7.97;;;;;;;5.46;58.21;99991.72;4894861;29;20048;-93
2022/10/27 01:38:01;;;;;;;15.52;8.00;;;;;;;5.15;58.49;99967.94;4910315;29;20096;-92
2022/10/27 01:40:36;;;;;;;15.40;7.68;;;;;;;5.08;58.63;99942.16;4906795;29;20525;-93
2022/10/27 01:43:12;;;;;;;16.90;8.82;;;;;;;5.13;58.06;99942.19;4924238;29;20044;-95
2022/10/27 01:45:41;;;;;;;20.70;7.95;;;;;;;5.17;58.34;99941.41;4922302;29;20104;-94
2022/10/27 01:48:09;;;;;;;21.63;8.10;;;;;;;5.25;58.13;99955.53;4910346;29;20044;-92
2022/10/27 01:50:38;;;;;;;21.27;8.93;;;;;;;5.48;58.40;99987.66;4910030;29;20050;-96
2022/10/27 01:53:06;;;;;;;16.38;7.43;;;;;;;5.21;57.99;99941.69;4894497;29;20134;-91
2022/10/27 01:55:55;;;;;;;18.00;8.05;;;;;;;5.31;58.00;99959.91;4911705;29;20051;-92
2022/10/27 01:58:37;;;;;;;14.38;8.15;;;;;;;5.53;58.01;99984.16;4913070;29;20096;-92
2022/10/27 02:01:40;;;;;;;20.20;8.18;;;;;;;5.49;58.30;99983.88;4864323;29;20139;-93
2022/10/27 02:04:22;;;;;;;19.38;8.00;;;;;;;5.51;58.46;99986.34;4903014;29;20413;-91
2022/10/27 02:06:58;;;;;;;16.42;8.48;;;;;;;5.30;58.43;99959.09;4925369;29;20063;-91
2022/10/27 02:09:31;;;;;;;14.98;7.55;;;;;;;5.47;58.75;99987.94;4908207;29;20044;-94
2022/10/27 02:12:01;;;;;;;17.77;8.02;;;;;;;5.56;58.47;99989.06;4911346;29;20104;-95
2022/10/27 02:14:27;;;;;;;16.02;8.02;;;;;;;5.44;58.09;99972.19;4922984;29;20035;-92
2022/10/27 02:16:54;;;;;;;13.90;8.07;;;;;;;5.27;58.26;99935.22;4876336;29;20710;-95
2022/10/27 02:19:22;;;;;;;17.60;8.97;;;;;;;5.54;58.36;99980.38;4875051;29;20076;-94
2022/10/27 02:21:51;;;;;;;17.50;8.15;;;;;;;5.51;58.42;99970.06;4910587;29;20427;-90
2022/10/27 02:24:18;;;;;;;17.45;8.52;;;;;;;5.32;58.29;99934.44;4871915;29;20044;-89
2022/10/27 02:26:52;;;;;;;19.33;9.07;;;;;;;5.37;58.38;99948.84;4893165;29;20048;-93
2022/10/27 02:29:28;;;;;;;17.60;8.35;;;;;;;5.53;58.50;99976.84;4904983;29;20098;-91
2022/10/27 02:32:00;;;;;;;18.83;8.77;;;;;;;5.20;58.32;99923.81;4905680;29;20042;-92
2022/10/27 02:34:27;;;;;;;18.48;8.45;;;;;;;5.36;58.33;99952.63;4889982;29;20047;-91
2022/10/27 02:39:22;;;;;;;22.10;8.85;;;;;;;5.45;58.72;99955.66;4903543;29;20052;-94
2022/10/27 02:41:53;;;;;;;14.38;8.38;;;;;;;5.51;58.38;99970.06;4886936;29;20043;-92
2022/10/27 02:44:19;;;;;;;19.00;9.40;;;;;;;5.24;58.43;99932.22;4901366;29;20201;-93
2022/10/27 02:46:46;;;;;;;19.45;8.52;;;;;;;5.34;58.90;99946.66;4905011;29;20044;-95
2022/10/27 02:49:12;;;;;;;16.42;8.93;;;;;;;5.36;58.77;99955.34;4909707;29;20096;-94
2022/10/27 02:51:38;;;;;;;17.30;8.80;;;;;;;5.42;58.68;99970.53;4885061;29;20050;-93
2022/10/27 02:54:10;;;;;;;18.15;9.23;;;;;;;5.44;58.77;99964.06;4889243;29;20059;-93
2022/10/27 02:56:41;;;;;;;17.35;8.93;;;;;;;5.23;58.88;99920.59;4896923;29;20040;-94
2022/10/27 02:59:08;;;;;;;24.42;9.57;;;;;;;5.56;58.83;99967.34;4908582;29;20051;-93
2022/10/27 03:01:34;;;;;;;24.67;9.88;;;;;;;5.63;58.65;99986.94;4890474;29;20040;-93
2022/10/27 03:04:00;;;;;;;19.52;10.00;;;;;;;5.48;58.64;99948.91;4871699;29;20087;-90
2022/10/27 03:06:26;;;;;;;26.55;9.35;;;;;;;5.40;58.24;99929.34;4906955;29;20039;-93
2022/10/27 03:08:54;;;;;;;19.17;9.55;;;;;;;5.64;58.50;99966.88;4904983;29;20070;-93
2022/10/27 03:11:20;;;;;;;36.72;11.57;;;;;;;5.49;58.33;99947.81;4892888;29;20516;-95
2022/10/27 03:13:46;;;;;;;21.45;10.77;;;;;;;5.30;58.64;99932.00;4906242;29;20120;-92
2022/10/27 03:16:12;;;;;;;26.35;10.90;;;;;;;5.72;58.18;99970.97;4922434;29;20080;-92
2022/10/27 03:18:38;;;;;;;20.70;10.18;;;;;;;5.43;58.13;99941.56;4902261;29;20048;-91
2022/10/27 03:21:05;;;;;;;18.95;9.85;;;;;;;5.27;58.18;99908.13;4924160;29;20065;-91
2022/10/27 03:23:31;;;;;;;28.63;11.63;;;;;;;5.49;58.31;99928.81;4923387;29;20036;-90
2022/10/27 03:25:59;;;;;;;23.75;10.10;;;;;;;5.66;57.41;99945.72;4907873;29;20040;-92
2022/10/27 03:28:30;;;;;;;16.27;9.52;;;;;;;5.77;58.00;99957.44;4924653;29;20035;-90
2022/10/27 03:30:56;;;;;;;25.10;10.45;;;;;;;5.74;58.19;99955.25;4904530;29;20041;-89
2022/10/27 03:33:23;;;;;;;22.85;10.68;;;;;;;5.58;58.21;99922.63;4901704;29;20097;-91
2022/10/27 03:35:49;;;;;;;25.37;11.30;;;;;;;5.86;58.28;99972.94;4901899;29;20060;-92
2022/10/27 03:38:15;;;;;;;21.70;10.85;;;;;;;5.61;57.92;99911.25;4911451;29;20025;-91
2022/10/27 03:40:41;;;;;;;23.83;10.70;;;;;;;5.89;58.19;99958.00;4894030;29;20023;-93
2022/10/27 03:43:09;;;;;;;23.98;11.80;;;;;;;5.59;57.87;99923.44;4888254;29;20043;-92
2022/10/27 03:45:35;;;;;;;25.33;10.73;;;;;;;5.63;58.17;99940.84;4920583;29;20052;-93
2022/10/27 03:48:04;;;;;;;24.17;10.88;;;;;;;5.72;58.23;99965.53;4889157;29;20025;-94
2022/10/27 03:50:31;;;;;;;17.00;9.73;;;;;;;5.83;58.08;99978.91;4889519;29;20035;-93
2022/10/27 03:52:58;;;;;;;21.05;10.75;;;;;;;5.48;58.11;99927.19;4874075;29;20104;-92
2022/10/27 03:55:25;;;;;;;19.48;10.45;;;;;;;5.62;57.95;99934.56;4889357;29;20037;-93
2022/10/27 03:57:52;;;;;;;20.73;9.48;;;;;;;5.71;58.18;99959.31;4892704;29;20029;-94
2022/10/27 04:00:19;;;;;;;23.88;8.80;;;;;;;5.87;57.88;99985.41;4892485;29;20112;-91
2022/10/27 04:02:46;;;;;;;27.70;8.98;;;;;;;5.44;58.57;99953.22;4892601;29;20036;-93
2022/10/27 04:05:12;;;;;;;19.25;8.98;;;;;;;5.76;57.92;99986.47;4891128;29;20068;-95
2022/10/27 04:07:39;;;;;;;21.23;8.40;;;;;;;5.74;58.43;99969.63;4910694;29;20056;-95
2022/10/27 04:10:06;;;;;;;14.18;8.10;;;;;;;5.85;58.57;99984.03;4908691;29;20056;-91
2022/10/27 04:12:32;;;;;;;22.27;8.90;;;;;;;5.71;58.06;99963.91;4927804;29;20052;-93
2022/10/27 04:14:58;;;;;;;17.08;8.98;;;;;;;5.66;58.03;99967.41;4927247;29;20312;-93
2022/10/27 04:17:24;;;;;;;17.58;8.75;;;;;;;5.82;58.45;99996.25;4927616;29;20044;-93
2022/10/27 04:19:50;;;;;;;16.92;8.93;;;;;;;5.57;57.95;99944.59;4943051;29;20036;-94
2022/10/27 04:22:17;;;;;;;22.00;9.20;;;;;;;5.48;58.14;99935.34;4927247;29;20047;-95
2022/10/27 04:24:43;;;;;;;20.52;9.18;;;;;;;5.78;58.02;99965.28;4923573;29;20032;-92
2022/10/27 04:27:10;;;;;;;30.05;9.23;;;;;;;5.74;57.76;99963.38;4927008;29;20099;-93
2022/10/27 04:29:36;;;;;;;18.55;8.88;;;;;;;5.87;57.56;99980.00;4911212;29;20036;-90
2022/10/27 04:32:02;;;;;;;27.70;9.10;;;;;;;5.60;57.53;99944.06;4911019;29;20024;-92
2022/10/27 04:34:28;;;;;;;21.75;8.23;;;;;;;5.69;57.79;99963.34;4942536;29;20071;-91
2022/10/27 04:36:54;;;;;;;19.10;8.73;;;;;;;5.75;57.88;99982.09;4927371;29;20036;-93
2022/10/27 04:39:21;;;;;;;20.60;8.57;;;;;;;5.73;58.46;99999.72;4896244;29;20032;-89
2022/10/27 04:41:47;;;;;;;19.88;8.77;;;;;;;5.35;58.36;99942.03;4942574;29;20036;-90
2022/10/27 04:44:13;;;;;;;28.42;9.40;;;;;;;5.63;57.99;99978.81;4910219;29;20028;-91
2022/10/27 04:46:39;;;;;;;30.08;9.68;;;;;;;5.64;58.43;99985.84;4926759;29;20068;-89
2022/10/27 04:49:05;;;;;;;49.10;11.45;;;;;;;5.69;57.95;99971.50;4926375;29;20024;-90
2022/10/27 04:51:31;;;;;;;25.33;9.63;;;;;;;5.71;58.12;99983.72;4926747;29;20024;-89
2022/10/27 04:53:57;;;;;;;27.52;10.48;;;;;;;5.69;58.17;99971.50;4926208;29;20038;-88
2022/10/27 04:56:23;;;;;;;34.80;10.40;;;;;;;5.79;58.32;99991.34;4925224;29;20098;-89
2022/10/27 04:58:50;;;;;;;24.60;9.70;;;;;;;5.75;58.38;99986.72;4926090;29;20067;-89
2022/10/27 05:01:16;;;;;;;26.80;10.40;;;;;;;5.75;58.07;99973.97;4910691;29;20051;-91
2022/10/27 05:03:42;;;;;;;29.38;9.95;;;;;;;5.73;57.87;99978.00;4927447;29;20024;-89
2022/10/27 05:06:08;;;;;;;27.73;11.60;;;;;;;5.86;58.07;99999.22;4926971;29;20060;-90
2022/10/27 05:08:34;;;;;;;29.00;10.20;;;;;;;5.83;58.44;100005.22;4919983;29;20051;-90
2022/10/27 05:11:00;;;;;;;39.22;10.93;;;;;;;5.71;58.51;99991.84;4919001;29;20048;-90
2022/10/27 05:13:27;;;;;;;38.50;11.18;;;;;;;5.68;58.71;99980.72;4932326;29;20048;-90
2022/10/27 05:15:58;;;;;;;30.67;9.95;;;;;;;5.74;58.72;99996.75;4918201;29;20129;-90
2022/10/27 05:18:24;;;;;;;29.52;10.50;;;;;;;5.79;59.05;100004.91;4915530;29;20048;-90
2022/10/27 05:20:51;;;;;;;32.80;9.85;;;;;;;5.84;58.80;100004.94;4916720;29;20183;-90
2022/10/27 05:23:36;;;;;;;33.40;10.27;;;;;;;5.91;58.76;100001.97;4933268;29;20020;-90
2022/10/27 05:26:02;;;;;;;28.55;9.30;;;;;;;6.00;58.66;99999.63;4930902;29;20503;-88
2022/10/27 05:28:29;;;;;;;27.63;10.18;;;;;;;5.77;58.86;99977.25;4916525;29;20048;-89
2022/10/27 05:30:57;;;;;;;30.85;10.13;;;;;;;5.97;58.81;100000.97;4930178;29;20044;-89
2022/10/27 05:33:24;;;;;;;30.33;9.52;;;;;;;5.91;58.85;99976.75;4927999;29;20055;-91
2022/10/27 05:35:50;;;;;;;29.60;11.10;;;;;;;6.06;58.61;100001.25;4929539;29;20044;-90
2022/10/27 05:38:17;;;;;;;27.50;10.27;;;;;;;5.95;59.07;99986.00;4915924;29;20052;-89
2022/10/27 05:40:43;;;;;;;33.30;11.10;;;;;;;6.00;59.36;100005.84;4929280;29;20044;-89
2022/10/27 05:43:09;;;;;;;27.25;9.60;;;;;;;6.17;59.45;100021.13;4912558;29;20303;-91
2022/10/27 05:45:36;;;;;;;34.42;11.80;;;;;;;6.09;59.58;100006.97;4927989;29;20048;-90
2022/10/27 05:48:05;;;;;;;25.27;9.73;;;;;;;6.09;59.20;99998.00;4910585;29;20544;-92
2022/10/27 05:50:32;;;;;;;28.95;10.18;;;;;;;6.21;58.89;100017.59;4911680;29;20040;-90
2022/10/27 05:52:58;;;;;;;24.88;10.63;;;;;;;6.12;58.89;100005.59;4925740;29;20063;-91
2022/10/27 05:55:26;;;;;;;22.60;10.95;;;;;;;6.14;58.88;100021.66;4910912;29;20052;-91
2022/10/27 05:58:03;;;;;;;28.15;10.77;;;;;;;5.92;59.71;100013.66;4892249;29;20075;-89
2022/10/27 06:00:32;;;;;;;31.10;10.80;;;;;;;5.89;59.53;99998.72;4903221;29;20063;-89
2022/10/27 06:03:00;;;;;;;30.70;11.18;;;;;;;6.15;59.57;100045.00;4885000;29;20056;-91
2022/10/27 06:05:28;;;;;;;25.15;11.00;;;;;;;5.84;59.61;99985.94;4900647;29;20052;-91
2022/10/27 06:07:58;;;;;;;28.23;10.73;;;;;;;6.03;59.68;100018.09;4904773;29;20044;-90
2022/10/27 06:10:24;;;;;;;23.05;10.07;;;;;;;5.96;60.19;100009.34;4917078;29;20044;-91
2022/10/27 06:12:51;;;;;;;19.65;9.95;;;;;;;5.91;59.64;100001.97;4899872;29;20184;-90
2022/10/27 06:15:17;;;;;;;24.10;10.40;;;;;;;6.13;59.84;100028.97;4899870;29;20069;-90
2022/10/27 06:17:43;;;;;;;24.45;10.27;;;;;;;6.18;59.71;100020.03;4900089;29;20051;-91
2022/10/27 06:20:10;;;;;;;22.83;9.93;;;;;;;6.20;59.80;100026.81;4900761;29;20036;-89
2022/10/27 06:22:36;;;;;;;33.95;11.32;;;;;;;6.40;59.59;100050.50;4900145;29;20040;-90
2022/10/27 06:25:02;;;;;;;35.78;11.13;;;;;;;6.39;59.37;100040.75;4900372;29;20040;-92
2022/10/27 06:27:30;;;;;;;25.80;10.95;;;;;;;6.42;59.52;100055.66;4900200;29;20433;-91
2022/10/27 06:29:56;;;;;;;27.10;11.25;;;;;;;6.16;59.80;100025.72;4916944;29;20040;-90
2022/10/27 06:32:23;;;;;;;23.70;11.50;;;;;;;6.22;59.67;100051.78;4916016;29;20498;-92
2022/10/27 06:34:49;;;;;;;26.40;10.32;;;;;;;6.24;59.96;100030.63;4900726;29;20325;-90
2022/10/27 06:37:15;;;;;;;45.00;17.13;;;;;;;6.22;59.66;100019.22;4899739;29;20037;-91
2022/10/27 06:39:41;;;;;;;44.53;13.60;;;;;;;6.46;59.18;100037.78;4915741;29;20046;-91
2022/10/27 06:42:08;;;;;;;29.65;12.95;;;;;;;6.49;59.36;100051.63;4915599;29;20148;-90
2022/10/27 06:44:34;;;;;;;23.13;11.40;;;;;;;6.40;59.49;100030.69;4900409;29;20454;-89
2022/10/27 06:47:00;;;;;;;26.88;11.82;;;;;;;6.47;59.62;100042.09;4899889;29;20055;-92
2022/10/27 06:49:26;;;;;;;35.83;12.03;;;;;;;6.47;59.61;100036.69;4897571;29;20043;-93
2022/10/27 06:51:59;;;;;;;22.13;11.13;;;;;;;6.66;59.55;100061.44;4881871;29;20052;-92
2022/10/27 06:54:43;;;;;;;27.92;11.57;;;;;;;6.68;59.47;100054.63;4880860;29;20052;-92
2022/10/27 06:57:09;;;;;;;37.47;11.77;;;;;;;6.71;59.14;100067.69;4911398;29;20143;-93
2022/10/27 06:59:42;;;;;;;42.00;12.43;;;;;;;6.37;59.99;100020.34;4866438;29;20052;-92
2022/10/27 07:02:13;;;;;;;31.15;11.55;;;;;;;6.32;59.25;100013.84;4896908;29;20048;-90
2022/10/27 07:04:45;;;;;;;22.67;10.45;;;;;;;6.46;59.35;100052.16;4897536;29;20037;-90
2022/10/27 07:07:12;;;;;;;21.25;10.35;;;;;;;6.43;59.39;100039.13;4880684;29;20040;-89
2022/10/27 07:09:39;;;;;;;30.63;12.77;;;;;;;6.64;59.99;100050.03;4899890;29;20050;-90
2022/10/27 07:12:05;;;;;;;;;;;;;;;6.82;59.37;100068.50;4900590;29;20040;-89
2022/10/27 07:14:32;;;;;;;26.00;10.73;;;;;;;6.68;59.32;100042.97;4899599;29;19922;-88
2022/10/27 07:16:58;;;;;;;31.02;12.18;;;;;;;6.65;59.37;100041.59;4898990;29;20506;-92
2022/10/27 07:19:25;;;;;;;28.98;11.10;;;;;;;6.84;59.20;100074.50;4884049;29;20036;-91
2022/10/27 07:21:51;;;;;;;26.70;13.00;;;;;;;6.71;59.53;100031.56;4899806;29;20055;-90
2022/10/27 07:24:17;;;;;;;27.95;13.02;;;;;;;6.77;58.87;100044.88;4899799;29;20463;-89
2022/10/27 07:26:43;;;;;;;28.92;12.45;;;;;;;6.93;59.01;100062.03;4882437;29;20055;-90
2022/10/27 07:29:09;;;;;;;37.47;12.20;;;;;;;6.75;58.56;100029.91;4899967;29;20040;-89
2022/10/27 07:34:04;;;;;;;41.22;14.45;;;;;;;7.04;59.10;100060.13;4917242;29;20064;-93
2022/10/27 07:36:30;;;;;;;37.00;12.88;;;;;;;7.16;59.11;100073.47;4899508;29;20047;-92
2022/10/27 07:38:57;;;;;;;38.60;12.73;;;;;;;7.21;58.57;100066.09;4879386;29;20040;-89
2022/10/27 07:41:23;;;;;;;24.80;11.80;;;;;;;7.04;58.18;100050.06;4899172;29;20044;-89
2022/10/27 07:43:49;;;;;;;37.67;12.35;;;;;;;7.23;57.97;100063.94;4915363;29;20044;-90
2022/10/27 07:46:15;;;;;;;36.63;13.20;;;;;;;7.38;58.10;100084.06;4900852;29;20048;-92
2022/10/27 07:48:41;;;;;;;28.05;12.38;;;;;;;7.17;57.82;100062.31;4884595;29;20071;-90
2022/10/27 07:51:08;;;;;;;38.38;13.02;;;;;;;7.17;58.57;100075.09;4893427;29;20545;-90
2022/10/27 07:53:34;;;;;;;30.25;12.23;;;;;;;7.20;58.76;100072.63;4900265;29;20040;-92
2022/10/27 07:58:48;;;;;;;32.55;11.30;;;;;;;7.27;57.79;100069.66;4899482;29;20044;-90
2022/10/27 08:01:23;;;;;;;25.98;11.18;;;;;;;7.34;58.40;100072.91;4900312;29;20036;-91
2022/10/27 08:03:50;;;;;;;47.38;13.52;;;;;;;7.29;57.87;100064.75;4899774;29;20040;-90
2022/10/27 08:06:16;;;;;;;45.33;12.43;;;;;;;7.19;58.55;100071.00;4920752;29;20078;-91
2022/10/27 08:08:43;;;;;;;34.03;11.90;;;;;;;7.21;59.17;100074.25;4900421;29;20044;-89
2022/10/27 08:11:10;;;;;;;33.47;12.05;;;;;;;7.20;59.02;100069.91;4900143;29;20112;-89
2022/10/27 08:13:37;;;;;;;30.13;12.73;;;;;;;7.04;59.05;100051.97;4899489;29;20036;-90
2022/10/27 08:16:03;;;;;;;72.03;14.63;;;;;;;7.08;58.84;100063.94;4888975;29;20104;-90
2022/10/27 08:18:29;;;;;;;29.88;11.90;;;;;;;7.04;59.43;100063.66;4898723;29;20051;-93
2022/10/27 08:20:55;;;;;;;53.50;13.57;;;;;;;7.02;59.23;100054.97;4899075;29;20410;-90
2022/10/27 08:23:24;;;;;;;34.38;12.70;;;;;;;7.16;59.42;100062.59;4908928;29;20036;-91
2022/10/27 08:25:51;;;;;;;26.65;12.38;;;;;;;7.26;59.18;100062.59;4914964;29;20501;-91
2022/10/27 08:28:18;;;;;;;55.80;13.55;;;;;;;7.31;59.12;100070.72;4899307;29;20055;-91
2022/10/27 08:30:45;;;;;;;200.82;24.77;;;;;;;7.39;58.65;100069.38;4910477;29;20104;-90
2022/10/27 08:33:12;;;;;;;99.57;17.50;;;;;;;7.28;58.57;100058.50;4900337;29;20051;-93
2022/10/27 08:35:39;;;;;;;86.78;17.23;;;;;;;7.23;58.34;100044.91;4900600;29;20056;-91
2022/10/27 08:38:09;;;;;;;71.03;15.35;;;;;;;7.36;59.37;100078.91;4908647;29;20502;-92
2022/10/27 08:40:47;;;;;;;60.70;15.55;;;;;;;7.37;58.92;100079.72;4899695;29;20047;-91
2022/10/27 08:43:28;;;;;;;42.70;13.23;;;;;;;7.35;59.16;100060.13;4897500;29;20044;-94
2022/10/27 08:46:26;;;;;;;28.85;11.02;;;;;;;7.43;59.14;100051.41;4905318;29;20048;-90
2022/10/27 08:48:57;;;;;;;26.17;11.80;;;;;;;7.49;59.01;100050.31;4925583;29;20087;-92
2022/10/27 08:51:25;;;;;;;27.48;12.25;;;;;;;7.65;58.10;100054.66;4910581;29;20040;-92
2022/10/27 08:53:54;;;;;;;24.33;11.68;;;;;;;7.76;58.15;100071.78;4900860;29;20044;-93
2022/10/27 08:56:24;;;;;;;39.13;12.85;;;;;;;7.59;58.17;100044.88;4911319;29;20071;-93
2022/10/27 08:58:51;;;;;;;30.98;11.77;;;;;;;7.60;58.43;100067.44;4902878;29;20040;-92
2022/10/27 09:01:39;;;;;;;56.47;13.35;;;;;;;7.62;58.60;100066.09;4904209;29;20466;-93
2022/10/27 09:04:05;;;;;;;35.47;12.65;;;;;;;7.84;58.44;100089.44;4904940;29;20138;-92
2022/10/27 09:06:35;;;;;;;;;;;;;;;7.87;58.47;100088.88;4932380;29;20051;-93
2022/10/27 09:09:24;;;;;;;21.45;11.30;;;;;;;7.73;59.12;100094.91;4912733;29;20315;-90
2022/10/27 09:11:50;;;;;;;31.70;11.90;;;;;;;7.82;59.12;100089.72;4907611;29;20075;-93
2022/10/27 09:14:44;;;;;;;61.47;14.48;;;;;;;7.74;58.87;100071.22;4904814;29;20044;-88
2022/10/27 09:17:33;;;;;;;81.32;15.32;;;;;;;7.96;58.85;100093.50;4923103;29;20044;-88
2022/10/27 09:20:23;;;;;;;33.80;11.70;;;;;;;8.19;58.86;100096.69;4904367;29;20052;-95
2022/10/27 09:22:56;;;;;;;25.70;10.82;;;;;;;8.27;59.02;100095.28;4894975;29;20055;-93
2022/10/27 09:25:23;;;;;;;23.42;10.55;;;;;;;8.17;58.24;100050.66;4912750;29;20127;-96
2022/10/27 09:27:58;;;;;;;26.92;11.73;;;;;;;8.36;58.49;100069.13;4880816;29;20108;-93
2022/10/27 09:30:36;;;;;;;28.27;12.38;;;;;;;8.57;57.93;100086.19;4881743;29;20103;-94
2022/10/27 09:33:35;;;;;;;35.70;13.90;;;;;;;8.20;57.82;100020.16;4934087;29;20048;-95
2022/10/27 09:36:13;;;;;;;77.97;36.22;;;;;;;8.65;57.93;100085.63;4910601;29;20044;-94
2022/10/27 09:38:40;;;;;;;42.83;18.25;;;;;;;8.27;57.45;100029.91;4892938;29;20498;-94
2022/10/27 09:41:07;;;;;;;44.17;18.73;;;;;;;8.16;57.75;100021.81;4895487;29;20059;-94
2022/10/27 09:43:36;;;;;;;;;;;;;;;8.64;57.87;100090.25;4912053;29;20039;-93
2022/10/27 09:46:17;;;;;;;26.02;13.98;;;;;;;8.40;57.40;100060.13;4901492;29;20136;-94
2022/10/27 09:48:45;;;;;;;26.45;14.10;;;;;;;8.45;57.81;100068.28;4891589;29;20044;-93
2022/10/27 09:51:24;;;;;;;34.72;14.25;;;;;;;8.36;58.04;100053.56;4920225;29;20708;-92
2022/10/27 09:53:53;;;;;;;17.45;9.05;;;;;;;8.43;58.06;100069.66;4923470;29;20573;-95
2022/10/27 09:56:26;;;;;;;24.67;12.30;;;;;;;8.43;57.58;100056.84;4920654;29;20395;-91
2022/10/27 09:59:01;;;;;;;15.65;7.68;;;;;;;8.72;57.87;100098.94;4914249;29;20048;-91
2022/10/27 10:01:48;;;;;;;21.38;8.38;;;;;;;8.82;57.57;100107.88;4904711;29;20134;-92
2022/10/27 10:04:30;;;;;;;21.30;9.00;;;;;;;8.52;58.23;100070.69;4895603;29;20046;-92
2022/10/27 10:06:59;;;;;;;21.63;10.45;;;;;;;8.80;57.51;100099.16;4921770;29;20054;-92
2022/10/27 10:09:28;;;;;;;20.70;10.40;;;;;;;8.63;57.04;100069.53;4902633;29;20512;-91
2022/10/27 10:12:24;;;;;;;25.50;10.43;;;;;;;8.78;56.92;100106.00;4887040;29;20051;-94
2022/10/27 10:15:11;;;;;;;38.97;12.63;;;;;;;8.47;57.24;100071.53;4891978;29;20502;-90
2022/10/27 10:17:49;;;;;;;35.70;12.02;;;;;;;8.46;57.86;100097.16;4897683;29;20439;-89
2022/10/27 10:20:39;;;;;;;24.90;10.85;;;;;;;8.44;57.38;100052.19;4889538;29;20045;-91
2022/10/27 10:23:30;;;;;;;34.15;13.20;;;;;;;8.71;57.35;100076.31;4903009;29;20040;-90
2022/10/27 10:25:59;;;;;;;21.80;11.88;;;;;;;8.92;57.17;100101.53;4879466;29;20063;-91
2022/10/27 10:28:51;;;;;;;31.60;13.80;;;;;;;8.89;56.54;100096.66;4904405;29;20060;-90
2022/10/27 10:31:27;;;;;;;32.13;14.23;;;;;;;8.52;56.63;100038.00;4911962;29;20046;-91
2022/10/27 10:34:21;;;;;;;29.17;14.50;;;;;;;8.55;56.06;100067.41;4904380;29;20131;-90
2022/10/27 10:36:49;;;;;;;33.75;15.63;;;;;;;8.69;56.71;100101.13;4922054;29;20050;-91
2022/10/27 10:39:26;;;;;;;40.50;14.52;;;;;;;8.56;57.09;100090.84;4905912;29;20091;-88
2022/10/27 10:42:16;;;;;;;36.47;16.02;;;;;;;8.62;57.23;100078.81;4902250;29;20040;-94
2022/10/27 10:44:43;;;;;;;32.33;15.68;;;;;;;8.43;56.86;100047.84;4921152;29;20044;-94
2022/10/27 10:47:28;;;;;;;32.70;16.98;;;;;;;8.86;56.99;100113.56;4915276;29;20092;-92
2022/10/27 10:49:58;;;;;;;44.08;17.58;;;;;;;8.66;56.99;100100.88;4922714;29;20047;-92
2022/10/27 10:52:48;;;;;;;35.00;16.10;;;;;;;8.56;56.89;100092.75;4898274;29;20417;-94
2022/10/27 10:55:19;;;;;;;39.53;18.45;;;;;;;8.76;57.17;100127.25;4878831;29;20057;-93
2022/10/27 10:57:51;;;;;;;59.35;20.60;;;;;;;8.63;57.93;100115.06;4873749;29;20062;-92
2022/10/27 11:00:20;;;;;;;40.05;19.58;;;;;;;8.56;57.31;100095.47;4865035;29;20049;-90
2022/10/27 11:02:52;;;;;;;39.85;17.15;;;;;;;8.43;57.32;100073.19;4863678;29;20060;-92
2022/10/27 11:05:23;;;;;;;50.42;19.55;;;;;;;8.47;57.37;100078.88;4890072;29;20060;-95
2022/10/27 11:07:50;;;;;;;41.92;19.52;;;;;;;8.50;57.72;100096.59;4868557;29;20044;-93
2022/10/27 11:15:28;;;;;;;39.60;18.88;;;;;;;8.51;57.73;100101.78;4884413;29;20105;-91
2022/10/27 11:18:20;;;;;;;49.80;20.58;;;;;;;8.66;57.82;100139.03;4887074;29;20048;-94
2022/10/27 11:20:57;;;;;;;39.55;19.90;;;;;;;8.46;58.24;100115.41;4862389;29;20108;-89
2022/10/27 11:23:45;;;;;;;41.08;19.67;;;;;;;8.61;58.48;100136.31;4859201;29;20507;-91
2022/10/27 11:26:15;;;;;;;46.15;20.85;;;;;;;8.43;58.71;100105.06;4872113;29;20578;-89
2022/10/27 11:28:51;;;;;;;67.18;22.20;;;;;;;8.52;58.76;100113.50;4907742;29;20049;-91
2022/10/27 11:31:23;;;;;;;84.68;24.77;;;;;;;8.70;58.52;100138.19;4910399;29;20040;-91
2022/10/27 11:34:06;;;;;;;46.38;21.98;;;;;;;8.48;58.92;100094.16;4915282;29;20100;-91
2022/10/27 11:36:48;;;;;;;55.33;22.73;;;;;;;8.45;58.37;100092.00;4879700;29;20044;-94
2022/10/27 11:39:57;;;;;;;42.10;21.08;;;;;;;8.61;58.58;100104.44;4899352;29;20138;-92
2022/10/27 11:42:45;;;;;;;40.60;18.65;;;;;;;8.76;58.43;100119.09;4899758;29;20499;-96
2022/10/27 11:45:35;;;;;;;39.72;18.88;;;;;;;8.83;58.12;100141.41;4884364;29;20144;-91
2022/10/27 11:48:35;;;;;;;33.83;18.50;;;;;;;8.62;58.76;100108.78;4883768;29;20052;-93
2022/10/27 11:51:15;;;;;;;28.05;15.60;;;;;;;8.67;58.79;100116.13;4889820;29;20048;-91
2022/10/27 11:53:41;;;;;;;30.17;15.07;;;;;;;8.71;58.51;100114.50;4882304;29;20458;-92
2022/10/27 11:56:36;;;;;;;29.93;15.43;;;;;;;8.81;59.07;100124.53;4929283;29;20048;-96